Time;durP1;ratioP1;P1;durP2;ratioP2;P2;SDS_P1;SDS_P2;PMS_P1;PMS_P2;Temp;Humidity;BMP_temperature;BMP_pressure;BME280_temperature;BME280_humidity;BME280_pressure;Samples;Min_cycle;Max_cycle;Signal;HPM_P1;HPM_P2
2022/11/15 00:02:12;;;;;;;;;;;11.70;99.90;;;;;;5063556;28;19916;-70
2022/11/15 00:04:41;;;;;;;;;;;11.60;99.90;;;;;;5081049;28;19917;-70
2022/11/15 00:07:12;;;;;;;;;;;11.50;99.90;;;;;;5084238;28;19969;-70
2022/11/15 00:10:03;;;;;;;;;;;11.40;99.90;;;;;;5076091;28;19917;-70
2022/11/15 00:12:34;;;;;;;;;;;11.30;99.90;;;;;;5073071;28;19971;-71
2022/11/15 00:14:59;;;;;;;;;;;11.30;99.90;;;;;;5078438;28;19916;-70
2022/11/15 00:17:25;;;;;;;;;;;11.30;99.90;;;;;;5083990;28;19912;-71
2022/11/15 00:20:48;;;;;;;;;;;11.30;99.90;;;;;;5062433;28;19916;-70
2022/11/15 00:22:57;;;;;;;;;;;11.40;99.90;;;;;;5061548;28;19943;-71
2022/11/15 00:25:49;;;;;;;;;;;11.30;99.90;;;;;;5060595;28;19917;-70
2022/11/15 00:28:15;;;;;;;;;;;11.30;99.90;;;;;;5075188;28;19923;-70
2022/11/15 00:30:40;;;;;;;;;;;11.30;99.90;;;;;;5089746;28;19908;-70
2022/11/15 00:33:12;;;;;;;;;;;11.20;99.90;;;;;;5081157;28;19920;-70
2022/11/15 00:35:41;;;;;;;;;;;11.20;99.90;;;;;;5089808;28;19974;-70
2022/11/15 00:38:10;;;;;;;;;;;11.20;99.90;;;;;;5058629;28;19912;-70
2022/11/15 00:40:41;;;;;;;;;;;11.10;99.90;;;;;;5083070;28;19970;-70
2022/11/15 00:43:07;;;;;;;;;;;11.20;99.90;;;;;;5081473;28;19909;-70
2022/11/15 00:45:33;;;;;;;;;;;11.30;99.90;;;;;;5055892;28;19935;-70
2022/11/15 00:47:59;;;;;;;;;;;11.40;99.90;;;;;;5063012;28;19916;-71
2022/11/15 00:50:24;;;;;;;;;;;11.40;99.90;;;;;;5076146;28;19948;-70
2022/11/15 00:52:50;;;;;;;;;;;11.50;99.90;;;;;;5078293;28;20014;-70
2022/11/15 00:55:24;;;;;;;;;;;11.60;99.90;;;;;;5059885;28;19908;-70
2022/11/15 00:57:50;;;;;;;;;;;11.60;99.90;;;;;;5079592;28;20286;-70
2022/11/15 01:00:25;;;;;;;;;;;11.70;99.90;;;;;;5063565;28;19946;-70
2022/11/15 01:02:58;;;;;;;;;;;11.70;99.90;;;;;;5085523;28;19963;-70
2022/11/15 01:48:51;;;;;;;;;;;11.20;99.90;;;;;;5085318;28;19919;-71
2022/11/15 01:51:31;;;;;;;;;;;;;;;;;;;;;
2022/11/15 01:54:00;;;;;;;;;;;11.10;99.90;;;;;;5082623;28;19987;-71
2022/11/15 01:56:52;;;;;;;;;;;11.00;99.90;;;;;;5065218;28;19927;-71
2022/11/15 01:59:24;;;;;;;;;;;11.00;99.90;;;;;;5056245;28;19913;-70
2022/11/15 02:01:56;;;;;;;;;;;10.90;99.90;;;;;;5089592;28;19919;-71
2022/11/15 02:04:31;;;;;;;;;;;10.90;99.90;;;;;;5065949;28;19939;-71
2022/11/15 02:06:57;;;;;;;;;;;10.90;99.90;;;;;;5076212;28;20021;-71
2022/11/15 02:09:23;;;;;;;;;;;10.90;99.90;;;;;;5089230;28;19913;-70
2022/11/15 02:11:50;;;;;;;;;;;10.80;99.90;;;;;;5064598;28;19915;-71
2022/11/15 02:14:20;;;;;;;;;;;10.80;99.90;;;;;;5076133;28;20421;-71
2022/11/15 02:16:54;;;;;;;;;;;10.70;99.90;;;;;;5065783;28;19913;-71
2022/11/15 02:19:32;;;;;;;;;;;10.80;99.90;;;;;;5084152;28;19915;-71
2022/11/15 02:22:17;;;;;;;;;;;10.70;99.90;;;;;;5063880;28;19917;-70
2022/11/15 02:25:03;;;;;;;;;;;10.70;99.90;;;;;;5064036;28;19912;-71
2022/11/15 02:30:54;;;;;;;;;;;10.60;99.90;;;;;;5073212;28;20517;-70
2022/11/15 02:33:32;;;;;;;;;;;10.70;99.90;;;;;;5058811;28;19916;-71
2022/11/15 02:36:00;;;;;;;;;;;10.70;99.90;;;;;;5066383;28;19923;-71
2022/11/15 02:38:49;;;;;;;;;;;10.70;99.90;;;;;;5065136;28;19915;-71
2022/11/15 02:41:41;;;;;;;;;;;10.60;99.90;;;;;;5067009;28;19916;-71
2022/11/15 02:44:21;;;;;;;;;;;10.60;99.90;;;;;;5083696;28;20397;-71
2022/11/15 02:49:37;;;;;;;;;;;10.60;99.90;;;;;;5077415;28;19935;-70
2022/11/15 02:52:06;;;;;;;;;;;10.70;99.90;;;;;;5082450;28;19909;-70
2022/11/15 02:54:37;;;;;;;;;;;10.70;99.90;;;;;;5065457;28;19917;-71
2022/11/15 02:57:26;;;;;;;;;;;10.80;99.90;;;;;;5074903;28;19912;-71
2022/11/15 03:00:14;;;;;;;;;;;10.80;99.90;;;;;;5064399;28;19931;-70
2022/11/15 03:02:55;;;;;;;;;;;10.80;99.90;;;;;;5060334;28;19970;-70
2022/11/15 03:05:45;;;;;;;;;;;10.80;99.90;;;;;;5046299;28;19909;-70
2022/11/15 03:08:34;;;;;;;;;;;10.70;99.90;;;;;;5079683;28;19923;-71
2022/11/15 03:11:24;;;;;;;;;;;10.70;99.90;;;;;;5064297;28;19936;-70
2022/11/15 03:14:01;;;;;;;;;;;10.70;99.90;;;;;;5065837;28;19976;-70
2022/11/15 03:16:36;;;;;;;;;;;10.70;99.90;;;;;;5064715;28;19913;-70
2022/11/15 03:19:09;;;;;;;;;;;10.70;99.90;;;;;;5065488;28;19912;-70
2022/11/15 03:21:35;;;;;;;;;;;10.70;99.90;;;;;;5082289;28;20343;-70
2022/11/15 03:24:10;;;;;;;;;;;10.70;99.90;;;;;;5064654;28;19908;-70
2022/11/15 03:26:38;;;;;;;;;;;10.60;99.90;;;;;;5062678;28;19952;-71
2022/11/15 03:29:24;;;;;;;;;;;10.60;99.90;;;;;;5081638;28;19913;-70
2022/11/15 03:32:06;;;;;;;;;;;10.60;99.90;;;;;;5065772;28;20294;-71
2022/11/15 03:35:00;;;;;;;;;;;10.60;99.90;;;;;;5063031;28;19920;-71
2022/11/15 03:37:47;;;;;;;;;;;10.60;99.90;;;;;;5058365;28;19985;-70
2022/11/15 03:40:20;;;;;;;;;;;10.60;99.90;;;;;;5084553;28;19916;-70
2022/11/15 03:42:57;;;;;;;;;;;10.50;99.90;;;;;;5064742;28;19978;-70
2022/11/15 03:45:28;;;;;;;;;;;10.60;99.90;;;;;;5065278;28;19975;-70
2022/11/15 03:48:05;;;;;;;;;;;10.50;99.90;;;;;;5061923;28;19991;-70
2022/11/15 03:50:31;;;;;;;;;;;10.50;99.90;;;;;;5077183;28;19920;-71
2022/11/15 03:53:11;;;;;;;;;;;10.50;99.90;;;;;;5081214;28;19987;-71
2022/11/15 03:55:37;;;;;;;;;;;10.60;99.90;;;;;;5083981;28;19935;-71
2022/11/15 03:58:03;;;;;;;;;;;10.70;99.90;;;;;;5080845;28;19908;-71
2022/11/15 04:00:29;;;;;;;;;;;10.70;99.90;;;;;;5070233;28;20225;-71
2022/11/15 04:02:58;;;;;;;;;;;10.80;99.90;;;;;;5088382;28;19912;-71
2022/11/15 04:05:27;;;;;;;;;;;10.90;99.90;;;;;;5063432;28;19908;-71
2022/11/15 04:07:56;;;;;;;;;;;11.00;99.90;;;;;;5065807;28;19940;-71
2022/11/15 04:10:23;;;;;;;;;;;11.00;99.90;;;;;;5071181;28;20532;-71
2022/11/15 04:12:52;;;;;;;;;;;11.10;99.90;;;;;;5086922;28;19912;-70
2022/11/15 04:15:28;;;;;;;;;;;11.20;99.90;;;;;;5082990;28;19916;-71
2022/11/15 04:17:55;;;;;;;;;;;11.30;99.90;;;;;;5087573;28;19919;-70
2022/11/15 04:25:57;;;;;;;;;;;11.30;99.90;;;;;;5085985;28;19994;-71
2022/11/15 04:28:26;;;;;;;;;;;11.30;99.90;;;;;;5091242;28;19944;-71
2022/11/15 04:31:16;;;;;;;;;;;11.30;99.90;;;;;;5077440;28;19959;-70
2022/11/15 04:33:51;;;;;;;;;;;11.40;99.90;;;;;;5079922;28;19915;-72
2022/11/15 04:39:13;;;;;;;;;;;11.30;99.90;;;;;;5092182;28;19982;-70
2022/11/15 04:41:39;;;;;;;;;;;11.40;99.90;;;;;;5081625;28;20006;-71
2022/11/15 04:44:07;;;;;;;;;;;11.30;99.90;;;;;;5082009;28;19919;-71
2022/11/15 04:46:33;;;;;;;;;;;11.30;99.90;;;;;;5074374;28;19917;-71
2022/11/15 04:49:09;;;;;;;;;;;11.30;99.90;;;;;;5074137;28;19979;-72
2022/11/15 04:51:35;;;;;;;;;;;11.30;99.90;;;;;;5051785;28;19923;-71
2022/11/15 04:54:01;;;;;;;;;;;11.20;99.90;;;;;;5077425;28;19912;-71
2022/11/15 04:56:29;;;;;;;;;;;11.20;99.90;;;;;;5053541;28;19922;-71
2022/11/15 04:58:55;;;;;;;;;;;11.20;99.90;;;;;;5059225;28;19938;-71
2022/11/15 05:01:21;;;;;;;;;;;11.20;99.90;;;;;;5072215;28;20015;-71
2022/11/15 05:09:43;;;;;;;;;;;11.20;99.90;;;;;;5098841;28;19980;-71
2022/11/15 05:12:49;;;;;;;;;;;;;;;;;;;;;
2022/11/15 05:15:15;;;;;;;;;;;11.20;99.90;;;;;;5065710;28;19964;-70
2022/11/15 05:18:05;;;;;;;;;;;11.30;99.90;;;;;;5090854;28;19912;-70
2022/11/15 05:20:39;;;;;;;;;;;11.30;99.90;;;;;;5079001;28;19919;-70
2022/11/15 05:23:10;;;;;;;;;;;11.40;99.90;;;;;;5082025;28;19908;-70
2022/11/15 05:25:41;;;;;;;;;;;11.40;99.90;;;;;;5058978;28;19966;-70
2022/11/15 05:28:07;;;;;;;;;;;11.50;99.90;;;;;;5062360;28;19913;-70
2022/11/15 05:30:36;;;;;;;;;;;11.50;99.90;;;;;;5057831;28;19913;-70
2022/11/15 05:33:17;;;;;;;;;;;11.50;99.90;;;;;;5081882;28;19932;-70
2022/11/15 05:35:57;;;;;;;;;;;11.50;99.90;;;;;;5051121;28;19944;-70
2022/11/15 05:38:50;;;;;;;;;;;11.50;99.90;;;;;;5073836;28;19940;-70
2022/11/15 05:41:24;;;;;;;;;;;11.50;99.90;;;;;;5087748;28;20011;-70
2022/11/15 05:46:36;;;;;;;;;;;11.40;99.90;;;;;;5092598;28;19923;-70
2022/11/15 05:49:08;;;;;;;;;;;11.40;99.90;;;;;;5083661;28;19912;-70
2022/11/15 05:51:39;;;;;;;;;;;11.30;99.90;;;;;;5067001;28;19974;-70
2022/11/15 05:54:10;;;;;;;;;;;11.30;99.90;;;;;;5082343;28;19920;-70
2022/11/15 05:56:36;;;;;;;;;;;11.30;99.90;;;;;;5083020;28;19979;-70
2022/11/15 05:59:02;;;;;;;;;;;11.40;99.90;;;;;;5086164;28;19940;-70
2022/11/15 06:01:31;;;;;;;;;;;11.40;99.90;;;;;;5087376;28;19970;-70
2022/11/15 06:04:06;;;;;;;;;;;11.40;99.90;;;;;;5090891;28;19939;-70
2022/11/15 06:06:34;;;;;;;;;;;11.40;99.90;;;;;;5074749;28;19978;-71
2022/11/15 06:16:09;;;;;;;;;;;;;;;;;;;;;
2022/11/15 06:18:40;;;;;;;;;;;11.60;99.90;;;;;;4886430;29;20426;-71
2022/11/15 06:21:06;;;;;;;;;;;11.70;99.90;;;;;;4987724;28;20045;-70
2022/11/15 06:23:35;;;;;;;;;;;11.70;99.90;;;;;;5039496;28;20003;-70
2022/11/15 06:26:01;;;;;;;;;;;11.70;99.90;;;;;;5084034;28;19980;-70
2022/11/15 06:28:36;;;;;;;;;;;11.60;99.90;;;;;;5065366;28;19909;-70
2022/11/15 06:31:03;;;;;;;;;;;11.60;99.90;;;;;;5062757;28;19978;-71
2022/11/15 06:33:32;;;;;;;;;;;11.50;99.90;;;;;;5092559;28;19918;-71
2022/11/15 06:36:16;;;;;;;;;;;11.60;99.90;;;;;;5081526;28;19916;-71
2022/11/15 06:38:49;;;;;;;;;;;11.60;99.90;;;;;;5082650;28;19936;-70
2022/11/15 06:41:24;;;;;;;;;;;11.60;99.90;;;;;;5065508;28;19970;-70
2022/11/15 06:43:53;;;;;;;;;;;11.70;99.90;;;;;;5065121;28;19917;-70
2022/11/15 06:50:00;;;;;;;;;;;11.80;99.90;;;;;;5069047;28;19912;-70
2022/11/15 06:52:22;;;;;;;;;;;11.80;99.90;;;;;;5077939;28;19920;-71
2022/11/15 06:54:48;;;;;;;;;;;11.80;99.90;;;;;;5066582;28;19908;-71
2022/11/15 06:57:14;;;;;;;;;;;11.70;99.90;;;;;;5052808;28;19912;-71
2022/11/15 06:59:39;;;;;;;;;;;11.70;99.90;;;;;;5081008;28;20023;-71
2022/11/15 07:02:13;;;;;;;;;;;11.60;99.90;;;;;;5066397;28;19995;-71
2022/11/15 07:04:39;;;;;;;;;;;11.60;99.90;;;;;;5075326;28;19956;-70
2022/11/15 07:07:05;;;;;;;;;;;11.60;99.90;;;;;;5072007;28;19924;-71
2022/11/15 07:09:31;;;;;;;;;;;11.60;99.90;;;;;;5075675;28;19943;-69
2022/11/15 07:11:57;;;;;;;;;;;11.70;99.90;;;;;;5084990;28;20367;-68
2022/11/15 07:14:22;;;;;;;;;;;11.60;99.90;;;;;;5071622;28;19908;-70
2022/11/15 07:16:48;;;;;;;;;;;11.60;99.90;;;;;;5070097;28;19916;-71
2022/11/15 07:19:14;;;;;;;;;;;11.60;99.90;;;;;;5072261;28;20571;-70
2022/11/15 07:21:39;;;;;;;;;;;11.70;99.90;;;;;;5073428;28;19920;-72
2022/11/15 07:24:05;;;;;;;;;;;11.80;99.90;;;;;;5054385;28;19935;-70
2022/11/15 07:26:31;;;;;;;;;;;11.90;99.90;;;;;;5065412;28;19958;-70
2022/11/15 07:28:57;;;;;;;;;;;12.10;99.90;;;;;;5064565;28;19959;-71
2022/11/15 07:31:23;;;;;;;;;;;12.10;99.90;;;;;;5065862;28;19912;-69
2022/11/15 07:33:48;;;;;;;;;;;12.10;99.90;;;;;;5042297;28;19916;-71
2022/11/15 07:36:14;;;;;;;;;;;12.00;99.90;;;;;;5047152;28;19928;-70
2022/11/15 07:38:40;;;;;;;;;;;12.10;99.90;;;;;;5050224;28;19951;-69
2022/11/15 07:41:06;;;;;;;;;;;12.10;99.90;;;;;;5067329;28;19912;-70
2022/11/15 07:43:33;;;;;;;;;;;12.10;99.90;;;;;;5093530;28;19961;-70
2022/11/15 07:45:59;;;;;;;;;;;12.20;99.90;;;;;;5065939;28;19912;-71
2022/11/15 07:48:25;;;;;;;;;;;12.10;99.90;;;;;;5072277;28;19923;-70
2022/11/15 07:50:50;;;;;;;;;;;12.20;99.90;;;;;;5073930;28;20003;-70
2022/11/15 07:53:16;;;;;;;;;;;12.20;99.90;;;;;;5072981;28;19920;-71
2022/11/15 07:55:42;;;;;;;;;;;12.20;99.90;;;;;;5076915;28;19955;-67
2022/11/15 07:58:09;;;;;;;;;;;12.20;99.90;;;;;;5070941;28;19935;-67
2022/11/15 08:00:35;;;;;;;;;;;12.30;99.90;;;;;;5078777;28;19958;-70
2022/11/15 08:03:04;;;;;;;;;;;12.40;99.90;;;;;;5089491;28;19918;-69
2022/11/15 08:05:29;;;;;;;;;;;12.50;99.90;;;;;;5070123;28;20378;-69
2022/11/15 08:07:55;;;;;;;;;;;12.60;99.90;;;;;;5086794;28;19916;-70
2022/11/15 08:10:21;;;;;;;;;;;12.70;99.90;;;;;;5059526;28;19919;-70
2022/11/15 08:12:47;;;;;;;;;;;12.70;99.90;;;;;;5085807;28;19912;-70
2022/11/15 08:15:13;;;;;;;;;;;12.70;99.90;;;;;;5078874;28;20345;-69
2022/11/15 08:17:38;;;;;;;;;;;12.70;99.90;;;;;;5078212;28;20317;-65
2022/11/15 08:20:04;;;;;;;;;;;12.80;99.90;;;;;;5074508;28;19908;-67
2022/11/15 08:22:39;;;;;;;;;;;12.90;99.90;;;;;;5071823;28;19925;-69
2022/11/15 08:25:05;;;;;;;;;;;13.00;99.90;;;;;;5070889;28;19920;-70
2022/11/15 08:27:31;;;;;;;;;;;13.00;99.90;;;;;;5073177;28;19924;-67
2022/11/15 08:29:56;;;;;;;;;;;13.00;99.90;;;;;;5056395;28;19935;-69
2022/11/15 08:32:22;;;;;;;;;;;13.10;99.90;;;;;;5080199;28;19912;-69
2022/11/15 08:35:11;;;;;;;;;;;13.20;99.90;;;;;;5076895;28;19983;-69
2022/11/15 08:37:37;;;;;;;;;;;13.20;99.90;;;;;;5065399;28;19912;-67
2022/11/15 08:40:03;;;;;;;;;;;13.30;99.90;;;;;;5060890;28;20394;-69
2022/11/15 08:42:29;;;;;;;;;;;13.30;99.90;;;;;;5083634;28;19923;-69
2022/11/15 08:44:55;;;;;;;;;;;13.30;99.90;;;;;;5073337;28;19916;-70
2022/11/15 08:47:20;;;;;;;;;;;13.40;99.90;;;;;;5058322;28;19917;-70
2022/11/15 08:49:46;;;;;;;;;;;13.40;99.90;;;;;;5081578;28;20374;-69
2022/11/15 08:52:13;;;;;;;;;;;13.50;99.90;;;;;;5071359;28;20613;-69
2022/11/15 08:54:39;;;;;;;;;;;13.40;99.90;;;;;;5076956;28;19992;-69
2022/11/15 08:57:04;;;;;;;;;;;13.40;99.90;;;;;;5053646;28;19944;-70
2022/11/15 08:59:30;;;;;;;;;;;13.50;99.90;;;;;;5071542;28;20375;-69
2022/11/15 09:01:55;;;;;;;;;;;13.60;99.90;;;;;;5066455;28;20291;-69
2022/11/15 09:04:21;;;;;;;;;;;13.70;99.90;;;;;;5077700;28;20019;-70
2022/11/15 09:06:47;;;;;;;;;;;13.60;99.90;;;;;;5063484;28;20007;-70
2022/11/15 09:09:12;;;;;;;;;;;13.60;99.90;;;;;;5080023;28;20538;-69
2022/11/15 09:11:38;;;;;;;;;;;13.70;99.90;;;;;;5072986;28;19970;-70
2022/11/15 09:14:04;;;;;;;;;;;13.70;99.90;;;;;;5065595;28;19955;-70
2022/11/15 09:16:30;;;;;;;;;;;13.70;99.90;;;;;;5071935;28;20367;-69
2022/11/15 09:18:56;;;;;;;;;;;13.70;99.90;;;;;;5071626;28;19913;-69
2022/11/15 09:21:22;;;;;;;;;;;13.70;99.90;;;;;;5071836;28;19912;-69
2022/11/15 09:23:50;;;;;;;;;;;13.80;99.90;;;;;;5080310;28;19919;-69
2022/11/15 09:26:15;;;;;;;;;;;13.80;99.90;;;;;;5076284;28;19952;-69
2022/11/15 09:28:41;;;;;;;;;;;13.90;99.90;;;;;;5071152;28;19920;-68
2022/11/15 09:31:07;;;;;;;;;;;14.00;99.90;;;;;;5074754;28;20271;-65
2022/11/15 09:33:33;;;;;;;;;;;14.00;99.90;;;;;;5067785;28;20011;-71
2022/11/15 09:36:06;;;;;;;;;;;14.00;99.90;;;;;;5073303;28;19912;-70
2022/11/15 09:38:32;;;;;;;;;;;14.10;99.90;;;;;;5072154;28;19918;-71
2022/11/15 09:41:17;;;;;;;;;;;14.10;99.90;;;;;;5067595;28;20235;-70
2022/11/15 09:43:45;;;;;;;;;;;14.10;99.90;;;;;;5059188;28;19928;-69
2022/11/15 09:46:11;;;;;;;;;;;14.20;99.90;;;;;;5075254;28;19916;-69
2022/11/15 09:48:46;;;;;;;;;;;14.30;99.90;;;;;;5075456;28;20429;-69
2022/11/15 09:51:21;;;;;;;;;;;14.30;99.90;;;;;;5047455;28;19951;-69
2022/11/15 09:53:49;;;;;;;;;;;14.30;99.90;;;;;;5068447;28;19912;-69
2022/11/15 09:56:23;;;;;;;;;;;14.40;99.90;;;;;;5057508;28;19913;-70
2022/11/15 09:58:51;;;;;;;;;;;14.40;99.90;;;;;;5073365;28;19920;-68
2022/11/15 10:01:23;;;;;;;;;;;14.50;99.90;;;;;;5071329;28;19974;-70
2022/11/15 10:03:48;;;;;;;;;;;14.50;99.90;;;;;;5074739;28;19943;-69
2022/11/15 10:06:21;;;;;;;;;;;14.50;99.90;;;;;;5076041;28;19912;-70
2022/11/15 10:08:51;;;;;;;;;;;14.50;99.90;;;;;;5065065;28;19920;-68
2022/11/15 10:11:22;;;;;;;;;;;14.50;99.90;;;;;;5068222;28;19908;-70
2022/11/15 10:13:49;;;;;;;;;;;14.40;99.90;;;;;;5068797;28;19939;-70
2022/11/15 10:16:27;;;;;;;;;;;14.40;99.90;;;;;;5068564;28;19917;-69
2022/11/15 10:19:01;;;;;;;;;;;14.40;99.90;;;;;;5074517;28;19920;-68
2022/11/15 10:21:46;;;;;;;;;;;14.40;99.90;;;;;;5070779;28;20055;-71
2022/11/15 10:24:35;;;;;;;;;;;14.40;99.90;;;;;;5067304;28;19956;-71
2022/11/15 10:27:23;;;;;;;;;;;14.30;99.90;;;;;;5079257;28;19927;-71
2022/11/15 10:29:55;;;;;;;;;;;14.30;99.90;;;;;;5077661;28;19943;-70
2022/11/15 10:32:21;;;;;;;;;;;14.40;99.90;;;;;;5070834;28;19913;-70
2022/11/15 10:34:48;;;;;;;;;;;14.40;99.90;;;;;;5061878;28;20005;-70
2022/11/15 10:37:13;;;;;;;;;;;14.40;99.90;;;;;;5059013;28;19920;-71
2022/11/15 10:39:39;;;;;;;;;;;14.40;99.90;;;;;;5054005;28;20290;-71
2022/11/15 10:42:16;;;;;;;;;;;14.50;99.90;;;;;;5067493;28;19923;-74
2022/11/15 10:44:43;;;;;;;;;;;14.50;99.90;;;;;;5072831;28;19923;-71
2022/11/15 10:47:30;;;;;;;;;;;14.60;99.90;;;;;;5090127;28;20429;-71
2022/11/15 10:50:00;;;;;;;;;;;14.60;99.90;;;;;;5080217;28;19919;-70
2022/11/15 10:52:27;;;;;;;;;;;14.70;99.90;;;;;;5060701;28;19934;-71
2022/11/15 10:55:05;;;;;;;;;;;14.70;99.90;;;;;;5076603;28;19919;-70
2022/11/15 10:57:39;;;;;;;;;;;14.70;99.90;;;;;;5077612;28;19916;-68
2022/11/15 11:00:28;;;;;;;;;;;14.80;99.90;;;;;;5080014;28;19984;-69
2022/11/15 11:03:21;;;;;;;;;;;14.90;99.90;;;;;;5067020;28;19916;-67
2022/11/15 11:05:46;;;;;;;;;;;14.90;99.90;;;;;;5067378;28;19920;-70
2022/11/15 11:08:15;;;;;;;;;;;15.00;99.90;;;;;;5070343;28;20019;-70
2022/11/15 11:11:01;;;;;;;;;;;15.00;99.90;;;;;;5073527;28;19919;-70
2022/11/15 11:13:28;;;;;;;;;;;15.10;99.90;;;;;;5049544;28;20413;-70
2022/11/15 11:16:12;;;;;;;;;;;15.10;99.90;;;;;;5066361;28;19916;-69
2022/11/15 11:19:18;;;;;;;;;;;15.10;99.90;;;;;;5078283;28;20360;-70
2022/11/15 11:21:57;;;;;;;;;;;15.10;99.90;;;;;;5061503;28;19912;-70
2022/11/15 11:24:53;;;;;;;;;;;15.10;99.90;;;;;;5070030;28;19913;-70
2022/11/15 11:27:40;;;;;;;;;;;15.10;99.90;;;;;;5069894;28;19987;-69
2022/11/15 11:30:18;;;;;;;;;;;15.00;99.90;;;;;;5068178;28;19934;-70
2022/11/15 11:32:50;;;;;;;;;;;15.00;99.90;;;;;;5080207;28;19921;-69
2022/11/15 11:35:39;;;;;;;;;;;15.10;99.90;;;;;;5074673;28;20010;-68
2022/11/15 11:38:13;;;;;;;;;;;15.10;99.90;;;;;;5083465;28;19912;-68
2022/11/15 11:40:58;;;;;;;;;;;15.10;99.90;;;;;;5069835;28;19954;-70
2022/11/15 11:43:26;;;;;;;;;;;15.00;99.90;;;;;;5075009;28;19921;-69
2022/11/15 11:46:22;;;;;;;;;;;15.00;99.90;;;;;;5070801;28;19912;-70
2022/11/15 11:48:53;;;;;;;;;;;14.90;99.90;;;;;;5061229;28;19916;-70
2022/11/15 11:51:30;;;;;;;;;;;14.90;99.90;;;;;;5074272;28;19916;-70
2022/11/15 11:53:59;;;;;;;;;;;14.90;99.90;;;;;;5069651;28;19974;-71
2022/11/15 11:56:34;;;;;;;;;;;14.80;99.90;;;;;;5074819;28;19912;-68
2022/11/15 11:59:02;;;;;;;;;;;14.90;99.90;;;;;;5073205;28;19916;-70
2022/11/15 12:01:40;;;;;;;;;;;14.90;99.90;;;;;;5085185;28;19946;-70
2022/11/15 12:04:12;;;;;;;;;;;14.90;99.90;;;;;;5077157;28;19919;-73
2022/11/15 12:07:10;;;;;;;;;;;14.90;99.90;;;;;;5068910;28;19923;-70
2022/11/15 12:09:49;;;;;;;;;;;14.90;99.90;;;;;;5056844;28;19978;-70
2022/11/15 12:12:24;;;;;;;;;;;15.10;99.90;;;;;;5065978;28;19913;-71
2022/11/15 12:14:53;;;;;;;;;;;15.30;99.90;;;;;;5064132;28;19908;-71
2022/11/15 12:17:25;;;;;;;;;;;15.50;99.90;;;;;;5082719;28;19920;-70
2022/11/15 12:19:52;;;;;;;;;;;15.60;99.90;;;;;;5082749;28;19908;-70
2022/11/15 12:22:26;;;;;;;;;;;15.50;99.90;;;;;;5074133;28;19912;-70
2022/11/15 12:24:58;;;;;;;;;;;15.40;99.90;;;;;;5077183;28;19912;-70
2022/11/15 12:27:32;;;;;;;;;;;15.30;99.90;;;;;;5073791;28;19923;-70
2022/11/15 12:30:00;;;;;;;;;;;15.20;99.90;;;;;;5076905;28;19924;-70
2022/11/15 12:32:38;;;;;;;;;;;15.10;99.90;;;;;;5070930;28;20420;-70
2022/11/15 12:35:22;;;;;;;;;;;15.10;99.90;;;;;;5065818;28;19920;-68
2022/11/15 12:37:54;;;;;;;;;;;15.10;99.90;;;;;;5053578;28;20010;-70
2022/11/15 12:40:28;;;;;;;;;;;15.10;99.90;;;;;;5051226;28;19916;-69
2022/11/15 12:43:23;;;;;;;;;;;15.10;99.90;;;;;;5073264;28;20302;-71
2022/11/15 12:45:48;;;;;;;;;;;15.10;99.90;;;;;;5065263;28;20603;-70
2022/11/15 12:48:17;;;;;;;;;;;15.10;99.90;;;;;;5074556;28;19916;-71
2022/11/15 12:50:55;;;;;;;;;;;15.10;99.90;;;;;;5070256;28;19932;-71
2022/11/15 12:53:27;;;;;;;;;;;15.10;99.90;;;;;;5070969;28;19920;-70
2022/11/15 12:56:09;;;;;;;;;;;15.10;99.90;;;;;;5076759;28;20382;-71
2022/11/15 12:58:47;;;;;;;;;;;15.10;99.90;;;;;;5053435;28;19928;-71
2022/11/15 13:01:36;;;;;;;;;;;15.10;99.90;;;;;;5078239;28;19920;-71
2022/11/15 13:04:21;;;;;;;;;;;15.10;99.90;;;;;;5073513;28;20415;-71
2022/11/15 13:06:48;;;;;;;;;;;15.10;99.90;;;;;;5074276;28;19917;-71
2022/11/15 13:09:32;;;;;;;;;;;15.00;99.90;;;;;;5074785;28;19912;-70
2022/11/15 13:11:59;;;;;;;;;;;15.10;99.90;;;;;;5075339;28;20360;-71
2022/11/15 13:14:37;;;;;;;;;;;15.10;99.90;;;;;;5090798;28;19916;-71
2022/11/15 13:17:20;;;;;;;;;;;15.10;99.90;;;;;;5075180;28;19923;-71
2022/11/15 13:19:47;;;;;;;;;;;15.10;99.90;;;;;;5051355;28;19940;-72
2022/11/15 13:24:57;;;;;;;;;;;15.10;99.90;;;;;;5077647;28;19982;-70
2022/11/15 13:27:23;;;;;;;;;;;15.10;99.90;;;;;;5077723;28;19925;-70
2022/11/15 13:29:48;;;;;;;;;;;15.10;99.90;;;;;;5083729;28;19912;-70
2022/11/15 13:32:15;;;;;;;;;;;15.00;99.90;;;;;;5070790;28;19912;-75
2022/11/15 13:34:46;;;;;;;;;;;15.00;99.90;;;;;;5076653;28;19948;-70
2022/11/15 13:37:20;;;;;;;;;;;15.00;99.90;;;;;;5078380;28;20414;-73
2022/11/15 13:39:47;;;;;;;;;;;15.10;99.90;;;;;;5072605;28;20007;-71
2022/11/15 13:42:14;;;;;;;;;;;15.10;99.90;;;;;;5074767;28;19928;-71
2022/11/15 13:44:53;;;;;;;;;;;15.10;99.90;;;;;;5088736;28;19995;-70
2022/11/15 13:47:19;;;;;;;;;;;15.10;99.90;;;;;;5076939;28;19924;-70
2022/11/15 13:49:45;;;;;;;;;;;15.10;99.90;;;;;;5058578;28;19931;-70
2022/11/15 13:52:14;;;;;;;;;;;15.20;99.90;;;;;;5064404;28;19911;-70
2022/11/15 13:54:43;;;;;;;;;;;15.20;99.90;;;;;;5080329;28;19919;-70
2022/11/15 13:57:15;;;;;;;;;;;15.10;99.90;;;;;;5067015;28;20060;-70
2022/11/15 13:59:45;;;;;;;;;;;15.00;99.90;;;;;;5057464;28;19913;-72
2022/11/15 14:02:17;;;;;;;;;;;15.00;99.90;;;;;;5069500;28;19918;-71
2022/11/15 14:04:53;;;;;;;;;;;15.10;99.90;;;;;;5076556;28;19912;-70
2022/11/15 14:07:21;;;;;;;;;;;15.00;99.90;;;;;;5078341;28;19927;-70
2022/11/15 14:09:47;;;;;;;;;;;14.90;99.90;;;;;;5077048;28;20449;-70
2022/11/15 14:12:22;;;;;;;;;;;14.90;99.90;;;;;;5078886;28;19943;-70
2022/11/15 14:15:02;;;;;;;;;;;14.80;99.90;;;;;;5075451;28;19912;-70
2022/11/15 14:17:28;;;;;;;;;;;14.80;99.90;;;;;;5083885;28;19916;-70
2022/11/15 14:19:57;;;;;;;;;;;14.70;99.90;;;;;;5078919;28;19919;-70
2022/11/15 14:22:28;;;;;;;;;;;14.70;99.90;;;;;;5074414;28;19913;-70
2022/11/15 14:25:12;;;;;;;;;;;14.70;99.90;;;;;;5084640;28;19919;-70
2022/11/15 14:27:38;;;;;;;;;;;14.70;99.90;;;;;;5074353;28;19923;-70
2022/11/15 14:30:04;;;;;;;;;;;14.60;99.90;;;;;;5088026;28;20011;-71
2022/11/15 14:32:42;;;;;;;;;;;14.60;99.90;;;;;;5088414;28;19920;-69
2022/11/15 14:35:18;;;;;;;;;;;14.60;99.90;;;;;;5074221;28;19913;-70
2022/11/15 14:37:45;;;;;;;;;;;14.50;99.90;;;;;;5073395;28;19908;-70
2022/11/15 14:40:13;;;;;;;;;;;14.50;99.90;;;;;;5056550;28;19921;-70
2022/11/15 14:42:39;;;;;;;;;;;14.40;99.90;;;;;;5067465;28;20327;-70
2022/11/15 14:45:23;;;;;;;;;;;14.40;99.90;;;;;;5080628;28;19940;-69
2022/11/15 14:47:48;;;;;;;;;;;14.50;99.90;;;;;;5077641;28;19959;-69
2022/11/15 14:50:18;;;;;;;;;;;14.50;99.90;;;;;;5061421;28;19954;-70
2022/11/15 14:52:45;;;;;;;;;;;14.50;99.90;;;;;;5079295;28;19958;-68
2022/11/15 14:55:17;;;;;;;;;;;14.40;99.90;;;;;;5070399;28;19912;-70
2022/11/15 14:57:46;;;;;;;;;;;14.30;99.90;;;;;;5074156;28;19954;-70
2022/11/15 15:00:12;;;;;;;;;;;14.30;99.90;;;;;;5080879;28;19912;-70
2022/11/15 15:02:41;;;;;;;;;;;14.30;99.90;;;;;;5068155;28;19999;-70
2022/11/15 15:05:13;;;;;;;;;;;14.30;99.90;;;;;;5058317;28;20045;-70
2022/11/15 15:07:39;;;;;;;;;;;14.30;99.90;;;;;;5071463;28;19927;-71
2022/11/15 15:10:05;;;;;;;;;;;14.20;99.90;;;;;;5080451;28;19913;-70
2022/11/15 15:12:30;;;;;;;;;;;14.10;99.90;;;;;;5087133;28;20309;-70
2022/11/15 15:14:56;;;;;;;;;;;14.10;99.90;;;;;;5074342;28;20400;-71
2022/11/15 15:17:21;;;;;;;;;;;14.10;99.90;;;;;;5056950;28;20558;-73
2022/11/15 15:19:47;;;;;;;;;;;14.00;99.90;;;;;;5073442;28;20420;-70
2022/11/15 15:22:17;;;;;;;;;;;14.00;99.90;;;;;;5085746;28;20011;-71
2022/11/15 15:24:46;;;;;;;;;;;14.00;99.90;;;;;;5064707;28;19960;-71
2022/11/15 15:27:12;;;;;;;;;;;14.10;99.90;;;;;;5074278;28;19916;-70
2022/11/15 15:29:37;;;;;;;;;;;14.20;99.90;;;;;;5054001;28;20398;-71
2022/11/15 15:32:03;;;;;;;;;;;14.20;99.90;;;;;;5085241;28;19916;-74
2022/11/15 15:34:29;;;;;;;;;;;14.20;99.90;;;;;;5078642;28;19908;-70
2022/11/15 15:37:13;;;;;;;;;;;14.10;99.90;;;;;;5074010;28;19969;-71
2022/11/15 15:39:39;;;;;;;;;;;14.10;99.90;;;;;;5067438;28;19962;-71
2022/11/15 15:42:04;;;;;;;;;;;14.10;99.90;;;;;;5084413;28;20374;-70
2022/11/15 15:44:30;;;;;;;;;;;14.00;99.90;;;;;;5077958;28;19970;-71
2022/11/15 15:46:57;;;;;;;;;;;14.00;99.90;;;;;;5071832;28;19924;-72
2022/11/15 15:49:23;;;;;;;;;;;14.00;99.90;;;;;;5068985;28;19991;-71
2022/11/15 15:51:48;;;;;;;;;;;14.00;99.90;;;;;;5083309;28;20001;-70
2022/11/15 15:54:14;;;;;;;;;;;14.00;99.90;;;;;;5057883;28;19912;-70
2022/11/15 15:56:40;;;;;;;;;;;14.00;99.90;;;;;;5075159;28;20370;-70
2022/11/15 15:59:06;;;;;;;;;;;14.00;99.90;;;;;;5071400;28;19913;-71
2022/11/15 16:01:31;;;;;;;;;;;14.00;99.90;;;;;;5063150;28;20380;-73
2022/11/15 16:03:57;;;;;;;;;;;14.00;99.90;;;;;;5072160;28;19923;-71
2022/11/15 16:06:44;;;;;;;;;;;14.00;99.90;;;;;;5053469;28;19912;-70
2022/11/15 16:09:14;;;;;;;;;;;14.00;99.90;;;;;;5068290;28;19909;-69